Time;durP1;ratioP1;P1;durP2;ratioP2;P2;SDS_P1;SDS_P2;PMS_P1;PMS_P2;Temp;Humidity;BMP_temperature;BMP_pressure;BME280_temperature;BME280_humidity;BME280_pressure;Samples;Min_cycle;Max_cycle;Signal;HPM_P1;HPM_P2
2022/08/02 00:01:21;;;;;;;4.85;1.42;;;;;;;;;;6306889;22;20622;-74
2022/08/02 00:03:46;;;;;;;4.03;1.38;;;;;;;;;;6306798;22;20193;-75
2022/08/02 00:06:12;;;;;;;3.22;1.30;;;;;;;;;;6307373;22;20143;-75
2022/08/02 00:08:37;;;;;;;3.78;1.20;;;;;;;;;;6307117;22;20217;-75
2022/08/02 00:11:02;;;;;;;2.75;1.35;;;;;;;;;;6279039;22;20171;-75
2022/08/02 00:13:27;;;;;;;2.67;1.30;;;;;;;;;;6307209;22;20223;-75
2022/08/02 00:15:52;;;;;;;4.57;1.60;;;;;;;;;;6279732;22;20154;-76
2022/08/02 00:18:17;;;;;;;3.63;1.20;;;;;;;;;;6306587;22;20230;-75
2022/08/02 00:20:43;;;;;;;5.18;1.58;;;;;;;;;;6306290;22;20168;-75
2022/08/02 00:23:08;;;;;;;3.88;1.27;;;;;;;;;;6307248;22;20148;-76
2022/08/02 00:25:33;;;;;;;2.13;1.25;;;;;;;;;;6306772;22;20374;-75
2022/08/02 00:27:58;;;;;;;6.78;1.58;;;;;;;;;;6307089;22;20598;-75
2022/08/02 00:30:24;;;;;;;3.88;1.50;;;;;;;;;;6306244;22;20167;-75
2022/08/02 00:32:49;;;;;;;7.72;1.88;;;;;;;;;;6305985;22;20194;-75
2022/08/02 00:35:14;;;;;;;4.65;1.95;;;;;;;;;;6306088;22;20231;-75
2022/08/02 00:37:40;;;;;;;3.80;1.85;;;;;;;;;;6306001;22;20144;-75
2022/08/02 00:40:05;;;;;;;3.15;1.50;;;;;;;;;;6305410;22;20168;-75
2022/08/02 00:42:31;;;;;;;2.65;1.33;;;;;;;;;;6278631;22;20602;-75
2022/08/02 00:44:57;;;;;;;6.10;1.38;;;;;;;;;;6305714;22;20179;-75
2022/08/02 00:47:22;;;;;;;3.00;1.30;;;;;;;;;;6306580;22;20144;-75
2022/08/02 00:49:48;;;;;;;3.08;1.33;;;;;;;;;;6278183;22;20266;-75
2022/08/02 00:52:13;;;;;;;2.42;1.48;;;;;;;;;;6305816;22;20527;-74
2022/08/02 00:54:38;;;;;;;2.70;1.30;;;;;;;;;;6305063;22;20148;-75
2022/08/02 00:57:03;;;;;;;4.28;1.67;;;;;;;;;;6305284;22;20144;-75
2022/08/02 00:59:28;;;;;;;4.68;1.77;;;;;;;;;;6304892;22;20152;-75
2022/08/02 01:01:54;;;;;;;3.97;1.50;;;;;;;;;;6304423;22;20645;-75
2022/08/02 01:04:19;;;;;;;2.45;1.30;;;;;;;;;;6304463;22;20232;-75
2022/08/02 01:06:44;;;;;;;4.10;1.50;;;;;;;;;;6277788;22;20147;-75
2022/08/02 01:09:10;;;;;;;3.20;1.83;;;;;;;;;;6278009;22;20178;-75
2022/08/02 01:11:35;;;;;;;7.22;1.58;;;;;;;;;;6305089;22;20217;-76
2022/08/02 01:14:07;;;;;;;1.98;1.33;;;;;;;;;;6305708;22;20599;-76
2022/08/02 01:16:35;;;;;;;3.95;1.65;;;;;;;;;;6278101;22;20536;-76
2022/08/02 01:19:05;;;;;;;4.07;1.65;;;;;;;;;;6277207;22;20213;-75
2022/08/02 01:21:39;;;;;;;2.65;1.38;;;;;;;;;;6277891;22;20213;-73
2022/08/02 01:24:08;;;;;;;2.75;1.10;;;;;;;;;;6305022;22;20147;-74
2022/08/02 01:26:52;;;;;;;3.00;1.58;;;;;;;;;;6305055;22;20147;-74
2022/08/02 01:29:32;;;;;;;1.73;1.30;;;;;;;;;;6304895;22;20586;-73
2022/08/02 01:32:15;;;;;;;5.30;1.50;;;;;;;;;;6304778;22;20171;-74
2022/08/02 01:34:48;;;;;;;4.00;1.52;;;;;;;;;;6305170;22;20144;-74
2022/08/02 01:37:33;;;;;;;2.42;1.30;;;;;;;;;;6304531;22;20525;-74
2022/08/02 01:40:05;;;;;;;2.38;1.55;;;;;;;;;;6304751;22;20163;-73
2022/08/02 01:42:31;;;;;;;4.03;1.75;;;;;;;;;;6305083;22;20550;-74
2022/08/02 01:44:57;;;;;;;3.58;1.70;;;;;;;;;;6304418;22;20186;-74
2022/08/02 01:47:29;;;;;;;4.85;1.70;;;;;;;;;;6305698;22;20155;-75
2022/08/02 01:49:56;;;;;;;6.38;2.17;;;;;;;;;;6305122;22;20178;-75
2022/08/02 01:52:22;;;;;;;4.70;1.90;;;;;;;;;;6303749;22;20150;-75
2022/08/02 01:55:08;;;;;;;4.90;2.15;;;;;;;;;;6304163;22;20221;-74
2022/08/02 01:57:40;;;;;;;4.68;2.28;;;;;;;;;;6304704;22;20171;-74
2022/08/02 02:00:07;;;;;;;5.38;2.50;;;;;;;;;;6304880;22;20184;-73
2022/08/02 02:02:33;;;;;;;4.10;2.10;;;;;;;;;;6274895;22;20182;-74
2022/08/02 02:04:58;;;;;;;6.03;2.20;;;;;;;;;;6305738;22;20152;-74
2022/08/02 02:07:25;;;;;;;4.88;2.30;;;;;;;;;;6276798;22;20618;-74
2022/08/02 02:09:51;;;;;;;5.10;2.28;;;;;;;;;;6277544;22;20175;-73
2022/08/02 02:12:18;;;;;;;3.70;1.90;;;;;;;;;;6303973;22;20139;-73
2022/08/02 02:14:43;;;;;;;6.25;3.17;;;;;;;;;;6305366;22;20148;-73
2022/08/02 02:17:10;;;;;;;3.78;2.50;;;;;;;;;;6304046;22;20485;-73
2022/08/02 02:19:36;;;;;;;4.80;2.40;;;;;;;;;;6277701;22;20482;-74
2022/08/02 02:22:01;;;;;;;4.22;2.80;;;;;;;;;;6276265;22;20202;-72
2022/08/02 02:24:27;;;;;;;5.05;2.75;;;;;;;;;;6304418;22;20545;-73
2022/08/02 02:26:52;;;;;;;3.13;2.20;;;;;;;;;;6303541;22;20152;-74
2022/08/02 02:29:19;;;;;;;4.28;2.08;;;;;;;;;;6304984;22;20171;-71
2022/08/02 02:31:45;;;;;;;2.88;1.92;;;;;;;;;;6303374;22;20171;-72
2022/08/02 02:34:14;;;;;;;4.32;2.20;;;;;;;;;;6305049;22;20209;-74
2022/08/02 02:36:44;;;;;;;5.35;2.22;;;;;;;;;;6304150;22;20151;-72
2022/08/02 02:39:11;;;;;;;3.25;1.85;;;;;;;;;;6303804;22;20590;-72
2022/08/02 02:41:36;;;;;;;4.10;2.17;;;;;;;;;;6303861;22;20168;-72
2022/08/02 02:44:02;;;;;;;2.42;1.75;;;;;;;;;;6305408;22;20175;-72
2022/08/02 02:46:30;;;;;;;5.15;1.98;;;;;;;;;;6305495;22;20218;-72
2022/08/02 02:48:56;;;;;;;2.40;2.13;;;;;;;;;;6306033;22;20209;-72
2022/08/02 02:51:22;;;;;;;4.22;2.40;;;;;;;;;;6276777;22;20607;-71
2022/08/02 02:53:49;;;;;;;6.53;2.30;;;;;;;;;;6304116;22;20201;-72
2022/08/02 02:56:15;;;;;;;7.95;2.00;;;;;;;;;;6278846;22;20545;-72
2022/08/02 02:58:40;;;;;;;4.75;1.75;;;;;;;;;;6305725;22;20143;-72
2022/08/02 03:03:50;;;;;;;3.42;1.65;;;;;;;;;;6308754;22;20273;-73
2022/08/02 03:06:15;;;;;;;4.32;1.98;;;;;;;;;;6309227;22;20170;-72
2022/08/02 03:08:41;;;;;;;3.13;1.85;;;;;;;;;;6307941;22;20645;-74
2022/08/02 03:11:07;;;;;;;2.80;2.05;;;;;;;;;;6308672;22;20649;-74
2022/08/02 03:13:33;;;;;;;3.22;1.80;;;;;;;;;;6308721;22;20151;-73
2022/08/02 03:15:58;;;;;;;4.00;2.15;;;;;;;;;;6309142;22;20172;-73
2022/08/02 03:18:34;;;;;;;3.78;2.13;;;;;;;;;;6309425;22;20598;-73
2022/08/02 03:21:00;;;;;;;3.40;2.00;;;;;;;;;;6308983;22;20178;-73
2022/08/02 03:23:25;;;;;;;2.83;1.58;;;;;;;;;;6282829;22;20472;-73
2022/08/02 03:25:50;;;;;;;3.85;1.70;;;;;;;;;;6309860;22;20158;-71
2022/08/02 03:28:16;;;;;;;4.90;1.70;;;;;;;;;;6307380;22;20171;-74
2022/08/02 03:30:41;;;;;;;5.75;1.80;;;;;;;;;;6305542;22;20618;-73
2022/08/02 03:33:06;;;;;;;3.70;1.83;;;;;;;;;;6278963;22;20144;-74
2022/08/02 03:35:32;;;;;;;5.68;1.98;;;;;;;;;;6305373;22;20223;-73
2022/08/02 03:37:57;;;;;;;4.32;2.55;;;;;;;;;;6306384;22;20583;-73
2022/08/02 03:40:23;;;;;;;3.50;1.77;;;;;;;;;;6306441;22;20160;-73
2022/08/02 03:42:49;;;;;;;5.70;2.08;;;;;;;;;;6306146;22;20148;-73
2022/08/02 03:45:14;;;;;;;4.10;1.65;;;;;;;;;;6306410;22;20187;-74
2022/08/02 03:47:40;;;;;;;3.25;2.33;;;;;;;;;;6306285;22;20155;-74
2022/08/02 03:50:07;;;;;;;7.03;3.30;;;;;;;;;;6306221;22;20203;-73
2022/08/02 03:52:32;;;;;;;3.88;2.28;;;;;;;;;;6305784;22;20503;-74
2022/08/02 03:54:57;;;;;;;4.78;2.25;;;;;;;;;;6305490;22;20218;-73
2022/08/02 03:57:23;;;;;;;2.25;1.95;;;;;;;;;;6305914;22;20148;-73
2022/08/02 03:59:48;;;;;;;5.15;1.85;;;;;;;;;;6306645;22;20143;-73
2022/08/02 04:02:13;;;;;;;6.20;2.13;;;;;;;;;;6305826;22;20544;-72
2022/08/02 04:04:38;;;;;;;6.50;1.90;;;;;;;;;;6306028;22;20194;-71
2022/08/02 04:07:03;;;;;;;3.20;2.03;;;;;;;;;;6306369;22;20583;-72
2022/08/02 04:09:29;;;;;;;5.50;1.80;;;;;;;;;;6305538;22;20550;-72
2022/08/02 04:11:54;;;;;;;4.93;2.30;;;;;;;;;;6305334;22;20168;-73
2022/08/02 04:14:19;;;;;;;3.55;1.95;;;;;;;;;;6278672;22;20242;-72
2022/08/02 04:16:52;;;;;;;3.38;2.20;;;;;;;;;;6305889;22;20447;-72
2022/08/02 04:19:25;;;;;;;3.88;2.20;;;;;;;;;;6278063;22;20155;-72
2022/08/02 04:21:51;;;;;;;4.68;2.08;;;;;;;;;;6305694;22;20167;-72
2022/08/02 04:24:17;;;;;;;3.42;1.80;;;;;;;;;;6305712;22;20171;-72
2022/08/02 04:26:43;;;;;;;3.25;1.95;;;;;;;;;;6306190;22;20657;-72
2022/08/02 04:29:09;;;;;;;3.20;2.35;;;;;;;;;;6305454;22;20194;-72
2022/08/02 04:31:35;;;;;;;5.25;2.30;;;;;;;;;;6305615;22;20160;-71
2022/08/02 04:34:00;;;;;;;4.53;2.28;;;;;;;;;;6305656;22;20211;-72
2022/08/02 04:36:25;;;;;;;4.80;2.33;;;;;;;;;;6278612;22;20662;-72
2022/08/02 04:38:51;;;;;;;2.80;1.73;;;;;;;;;;6305486;22;20147;-73
2022/08/02 04:41:16;;;;;;;2.75;2.08;;;;;;;;;;6305258;22;20163;-73
2022/08/02 04:43:41;;;;;;;9.50;2.83;;;;;;;;;;6304964;22;20167;-73
2022/08/02 04:46:06;;;;;;;3.38;1.90;;;;;;;;;;6306345;22;20156;-73
2022/08/02 04:48:32;;;;;;;9.07;2.70;;;;;;;;;;6305985;22;20513;-73
2022/08/02 04:50:57;;;;;;;4.22;2.28;;;;;;;;;;6278641;22;20246;-73
2022/08/02 04:53:22;;;;;;;7.13;2.55;;;;;;;;;;6277614;22;20148;-74
2022/08/02 04:55:47;;;;;;;4.50;2.53;;;;;;;;;;6305143;22;20670;-74
2022/08/02 04:58:13;;;;;;;4.75;2.30;;;;;;;;;;6303613;22;20148;-71
2022/08/02 05:00:38;;;;;;;3.42;2.25;;;;;;;;;;6304832;22;20163;-74
2022/08/02 05:03:03;;;;;;;4.18;2.08;;;;;;;;;;6304583;22;20144;-72
2022/08/02 05:05:29;;;;;;;4.80;2.83;;;;;;;;;;6306316;22;20179;-72
2022/08/02 05:07:54;;;;;;;6.50;2.30;;;;;;;;;;6304700;22;20198;-74
2022/08/02 05:10:19;;;;;;;4.65;2.55;;;;;;;;;;6277774;22;20221;-74
2022/08/02 05:12:45;;;;;;;5.72;2.90;;;;;;;;;;6305343;22;20494;-73
2022/08/02 05:15:11;;;;;;;6.38;3.30;;;;;;;;;;6305511;22;20606;-74
2022/08/02 05:17:36;;;;;;;5.07;2.67;;;;;;;;;;6305576;22;20158;-74
2022/08/02 05:20:01;;;;;;;5.65;2.80;;;;;;;;;;6305225;22;20175;-73
2022/08/02 05:22:26;;;;;;;6.10;2.72;;;;;;;;;;6304909;22;20144;-73
2022/08/02 05:24:51;;;;;;;6.07;2.67;;;;;;;;;;6305183;22;20550;-74
2022/08/02 05:27:17;;;;;;;6.10;2.88;;;;;;;;;;6304784;22;20151;-74
2022/08/02 05:29:42;;;;;;;5.05;2.90;;;;;;;;;;6304662;22;20581;-73
2022/08/02 05:32:07;;;;;;;8.67;4.53;;;;;;;;;;6303923;22;20148;-74
2022/08/02 05:34:32;;;;;;;5.70;3.03;;;;;;;;;;6277515;22;20455;-74
2022/08/02 05:36:57;;;;;;;4.22;2.95;;;;;;;;;;6305767;22;20144;-73
2022/08/02 05:39:23;;;;;;;3.95;2.88;;;;;;;;;;6304466;22;20148;-74
2022/08/02 05:41:48;;;;;;;7.32;3.13;;;;;;;;;;6304436;22;20191;-72
2022/08/02 05:44:13;;;;;;;12.90;3.50;;;;;;;;;;6305368;22;20159;-72
2022/08/02 05:46:38;;;;;;;6.85;2.90;;;;;;;;;;6304310;22;20152;-74
2022/08/02 05:49:03;;;;;;;6.90;3.25;;;;;;;;;;6305251;22;20183;-74
2022/08/02 05:51:35;;;;;;;6.45;3.35;;;;;;;;;;6304969;22;20619;-74
2022/08/02 05:54:13;;;;;;;6.00;3.33;;;;;;;;;;6276948;22;20261;-73
2022/08/02 05:56:46;;;;;;;6.07;3.40;;;;;;;;;;6304174;22;20139;-74
2022/08/02 05:59:14;;;;;;;7.32;3.33;;;;;;;;;;6305250;22;20614;-72
2022/08/02 06:01:41;;;;;;;7.13;3.63;;;;;;;;;;6304005;22;20164;-74
2022/08/02 06:04:08;;;;;;;10.88;3.75;;;;;;;;;;6304901;22;20148;-72
2022/08/02 06:06:33;;;;;;;6.28;3.83;;;;;;;;;;6304604;22;20158;-72
2022/08/02 06:09:01;;;;;;;8.02;4.30;;;;;;;;;;6304784;22;20203;-71
2022/08/02 06:11:34;;;;;;;6.15;4.00;;;;;;;;;;6304176;22;20170;-71
2022/08/02 06:14:01;;;;;;;5.07;3.75;;;;;;;;;;6303738;22;20549;-71
2022/08/02 06:16:26;;;;;;;7.00;4.22;;;;;;;;;;6304855;22;20155;-72
2022/08/02 06:18:52;;;;;;;8.15;4.50;;;;;;;;;;6304712;22;20152;-72
2022/08/02 06:21:20;;;;;;;6.30;4.10;;;;;;;;;;6304765;22;20213;-72
2022/08/02 06:23:46;;;;;;;6.53;4.05;;;;;;;;;;6277153;22;20230;-72
2022/08/02 06:26:12;;;;;;;8.65;4.45;;;;;;;;;;6304610;22;20641;-72
2022/08/02 06:28:37;;;;;;;8.52;4.60;;;;;;;;;;6304533;22;20179;-72
2022/08/02 06:31:04;;;;;;;6.88;4.55;;;;;;;;;;6304220;22;20159;-72
2022/08/02 06:33:29;;;;;;;6.75;4.47;;;;;;;;;;6304956;22;20144;-73
2022/08/02 06:36:08;;;;;;;7.40;4.93;;;;;;;;;;6304714;22;20155;-72
2022/08/02 06:38:41;;;;;;;8.43;5.70;;;;;;;;;;6304039;22;20135;-73
2022/08/02 06:41:11;;;;;;;6.47;5.20;;;;;;;;;;6276192;22;20186;-72
2022/08/02 06:43:42;;;;;;;7.43;4.97;;;;;;;;;;6305130;22;20174;-71
2022/08/02 06:46:07;;;;;;;7.90;4.75;;;;;;;;;;6304906;22;20140;-72
2022/08/02 06:48:34;;;;;;;6.65;5.35;;;;;;;;;;6304067;22;20274;-72
2022/08/02 06:51:00;;;;;;;7.93;5.72;;;;;;;;;;6276429;22;20182;-72
2022/08/02 06:53:25;;;;;;;8.93;5.65;;;;;;;;;;6304253;22;20590;-71
2022/08/02 06:55:51;;;;;;;10.37;5.20;;;;;;;;;;6304632;22;20148;-72
2022/08/02 06:58:16;;;;;;;7.93;5.47;;;;;;;;;;6304341;22;20372;-73
2022/08/02 07:00:42;;;;;;;8.23;5.47;;;;;;;;;;6303467;22;20172;-71
2022/08/02 07:03:07;;;;;;;11.02;6.38;;;;;;;;;;6277370;22;20182;-71
2022/08/02 07:05:33;;;;;;;12.18;6.57;;;;;;;;;;6304757;22;20144;-72
2022/08/02 07:07:58;;;;;;;7.70;6.25;;;;;;;;;;6303870;22;20513;-73
2022/08/02 07:10:24;;;;;;;7.95;5.97;;;;;;;;;;6304496;22;20213;-73
2022/08/02 07:12:49;;;;;;;8.65;7.28;;;;;;;;;;6303355;22;20209;-72
2022/08/02 07:15:15;;;;;;;8.60;7.63;;;;;;;;;;6276801;22;20162;-72
2022/08/02 07:17:40;;;;;;;12.30;7.38;;;;;;;;;;6304654;22;20579;-72
2022/08/02 07:20:06;;;;;;;10.65;8.00;;;;;;;;;;6304783;22;20167;-72
2022/08/02 07:22:31;;;;;;;10.07;7.63;;;;;;;;;;6303672;22;20148;-73
2022/08/02 07:24:58;;;;;;;11.15;9.35;;;;;;;;;;6304207;22;20152;-72
2022/08/02 07:27:23;;;;;;;13.25;8.38;;;;;;;;;;6303796;22;20206;-72
2022/08/02 07:29:48;;;;;;;15.82;9.10;;;;;;;;;;6303397;22;20171;-72
2022/08/02 07:32:17;;;;;;;15.20;9.32;;;;;;;;;;6303545;22;20144;-72
2022/08/02 07:34:43;;;;;;;10.52;8.07;;;;;;;;;;6303585;22;20147;-72
2022/08/02 07:37:09;;;;;;;10.95;9.38;;;;;;;;;;6304197;22;20223;-72
2022/08/02 07:39:34;;;;;;;12.00;9.30;;;;;;;;;;6303783;22;20148;-72
2022/08/02 07:41:59;;;;;;;10.77;8.13;;;;;;;;;;6303789;22;20167;-72
2022/08/02 07:44:24;;;;;;;12.13;8.53;;;;;;;;;;6304091;22;20384;-72
2022/08/02 07:46:49;;;;;;;11.95;8.32;;;;;;;;;;6305667;22;20384;-72
2022/08/02 07:49:17;;;;;;;10.77;8.35;;;;;;;;;;6306124;22;20167;-72
2022/08/02 07:51:43;;;;;;;10.15;7.75;;;;;;;;;;6305763;22;20244;-72
2022/08/02 07:54:09;;;;;;;9.77;7.05;;;;;;;;;;6306211;22;20144;-73
2022/08/02 07:56:34;;;;;;;8.63;6.32;;;;;;;;;;6278797;22;20148;-74
2022/08/02 07:58:59;;;;;;;6.65;5.93;;;;;;;;;;6305577;22;20147;-74
2022/08/02 08:01:24;;;;;;;6.43;5.72;;;;;;;;;;6305597;22;20171;-74
2022/08/02 08:03:49;;;;;;;8.03;5.90;;;;;;;;;;6306237;22;20143;-73
2022/08/02 08:06:15;;;;;;;9.30;5.27;;;;;;;;;;6306000;22;20379;-73
2022/08/02 08:08:40;;;;;;;7.40;5.72;;;;;;;;;;6305529;22;20453;-74
2022/08/02 08:11:05;;;;;;;5.78;4.68;;;;;;;;;;6305603;22;20183;-73
2022/08/02 08:13:30;;;;;;;5.18;4.57;;;;;;;;;;6306281;22;20143;-73
2022/08/02 08:15:55;;;;;;;6.23;4.50;;;;;;;;;;6278779;22;20158;-73
2022/08/02 08:18:21;;;;;;;8.00;5.45;;;;;;;;;;6304991;22;20361;-73
2022/08/02 08:20:46;;;;;;;4.97;4.55;;;;;;;;;;6306209;22;20183;-74
2022/08/02 08:23:11;;;;;;;5.67;5.03;;;;;;;;;;6306414;22;20179;-74
2022/08/02 08:25:36;;;;;;;7.72;5.20;;;;;;;;;;6306594;22;20755;-74
2022/08/02 08:28:02;;;;;;;7.22;5.50;;;;;;;;;;6306692;22;20610;-73
2022/08/02 08:30:27;;;;;;;6.43;5.60;;;;;;;;;;6306394;22;20638;-73
2022/08/02 08:32:52;;;;;;;8.83;5.93;;;;;;;;;;6306273;22;20487;-73
2022/08/02 08:35:17;;;;;;;9.45;6.25;;;;;;;;;;6306246;22;20356;-74
2022/08/02 08:37:43;;;;;;;8.50;6.70;;;;;;;;;;6306082;22;20550;-73
2022/08/02 08:40:09;;;;;;;9.27;7.57;;;;;;;;;;6306385;22;20626;-74
2022/08/02 08:42:35;;;;;;;10.73;7.88;;;;;;;;;;6305973;22;20437;-74
2022/08/02 08:45:00;;;;;;;11.68;8.38;;;;;;;;;;6303387;22;20610;-73
2022/08/02 08:47:31;;;;;;;8.97;7.83;;;;;;;;;;6303458;22;20154;-73
2022/08/02 08:49:58;;;;;;;12.15;8.25;;;;;;;;;;6305128;22;20813;-74
2022/08/02 08:52:24;;;;;;;9.18;8.27;;;;;;;;;;6299935;22;20246;-73
2022/08/02 08:54:50;;;;;;;10.90;9.75;;;;;;;;;;6277452;22;20144;-72
2022/08/02 08:57:16;;;;;;;12.50;8.88;;;;;;;;;;6304516;22;20151;-73
2022/08/02 08:59:42;;;;;;;12.43;9.60;;;;;;;;;;6305579;22;20197;-72
2022/08/02 09:02:10;;;;;;;9.63;8.65;;;;;;;;;;6302769;22;20151;-73
2022/08/02 09:04:35;;;;;;;10.93;8.77;;;;;;;;;;6304917;22;20602;-74
2022/08/02 09:07:00;;;;;;;11.18;9.90;;;;;;;;;;6278109;22;20238;-73
2022/08/02 09:09:25;;;;;;;13.17;8.70;;;;;;;;;;6305282;22;20603;-73
2022/08/02 09:11:51;;;;;;;9.77;8.60;;;;;;;;;;6303643;22;20430;-73
2022/08/02 09:14:26;;;;;;;10.40;9.32;;;;;;;;;;6305792;22;20395;-73
2022/08/02 09:16:52;;;;;;;15.45;10.52;;;;;;;;;;6273602;22;20580;-73
2022/08/02 09:19:21;;;;;;;11.90;9.37;;;;;;;;;;6276631;22;20152;-73
2022/08/02 09:22:06;;;;;;;12.18;8.85;;;;;;;;;;6304683;22;20380;-72
2022/08/02 09:24:47;;;;;;;12.20;8.88;;;;;;;;;;6303106;22;20537;-73
2022/08/02 09:27:17;;;;;;;11.02;8.30;;;;;;;;;;6304293;22;20147;-73
2022/08/02 09:29:46;;;;;;;9.77;8.38;;;;;;;;;;6276896;22;20206;-74
2022/08/02 09:32:11;;;;;;;9.82;8.48;;;;;;;;;;6277210;22;20158;-74
2022/08/02 09:34:43;;;;;;;9.52;8.10;;;;;;;;;;6304458;22;20148;-73
2022/08/02 09:37:20;;;;;;;9.90;8.73;;;;;;;;;;6304553;22;20442;-73
2022/08/02 09:39:45;;;;;;;9.60;8.57;;;;;;;;;;6305209;22;20131;-74
2022/08/02 09:42:11;;;;;;;10.45;8.25;;;;;;;;;;6303902;22;20634;-73
2022/08/02 09:44:36;;;;;;;9.10;8.20;;;;;;;;;;6304004;22;21064;-73
2022/08/02 09:47:12;;;;;;;6.72;6.13;;;;;;;;;;6304873;22;20150;-74
2022/08/02 09:49:44;;;;;;;6.50;5.90;;;;;;;;;;6304719;22;20174;-73
2022/08/02 09:52:09;;;;;;;7.40;5.13;;;;;;;;;;6277381;22;20147;-73
2022/08/02 09:54:37;;;;;;;7.20;5.03;;;;;;;;;;6304262;22;20144;-74
2022/08/02 09:57:03;;;;;;;5.78;4.78;;;;;;;;;;6302969;22;20152;-74
2022/08/02 09:59:28;;;;;;;5.63;4.70;;;;;;;;;;6304791;22;20154;-74
2022/08/02 10:01:54;;;;;;;6.35;4.30;;;;;;;;;;6303822;22;20163;-74
2022/08/02 10:04:21;;;;;;;5.43;4.70;;;;;;;;;;6304974;22;20201;-73
2022/08/02 10:06:47;;;;;;;6.25;4.40;;;;;;;;;;6303836;22;20214;-73
2022/08/02 10:09:12;;;;;;;6.57;4.53;;;;;;;;;;6276811;22;20190;-74
2022/08/02 10:11:38;;;;;;;5.07;3.90;;;;;;;;;;6304285;22;20516;-73
2022/08/02 10:14:04;;;;;;;5.10;3.55;;;;;;;;;;6304829;22;20218;-72
2022/08/02 10:16:32;;;;;;;6.88;3.88;;;;;;;;;;6276888;22;20144;-73
2022/08/02 10:18:59;;;;;;;3.40;3.10;;;;;;;;;;6303974;22;20462;-73
2022/08/02 10:21:35;;;;;;;4.20;2.60;;;;;;;;;;6304167;22;20178;-73
2022/08/02 10:24:11;;;;;;;3.80;2.83;;;;;;;;;;6304796;22;20131;-73
2022/08/02 10:26:38;;;;;;;2.67;2.30;;;;;;;;;;6304283;22;20497;-73
2022/08/02 10:29:03;;;;;;;4.50;2.65;;;;;;;;;;6304166;22;20182;-73
2022/08/02 10:31:50;;;;;;;2.85;1.88;;;;;;;;;;6303375;22;20187;-73
2022/08/02 10:34:16;;;;;;;5.32;2.38;;;;;;;;;;6304384;22;20131;-72
2022/08/02 10:36:42;;;;;;;5.57;2.10;;;;;;;;;;6303453;22;20159;-74
2022/08/02 10:39:08;;;;;;;2.65;2.45;;;;;;;;;;6303410;22;20143;-74
2022/08/02 10:41:43;;;;;;;2.10;1.90;;;;;;;;;;6303040;22;20167;-73
2022/08/02 10:44:18;;;;;;;4.97;2.75;;;;;;;;;;6304515;22;20159;-73
2022/08/02 10:46:44;;;;;;;3.03;2.13;;;;;;;;;;6304376;22;20128;-73
2022/08/02 10:49:09;;;;;;;3.97;1.85;;;;;;;;;;6276878;22;20200;-73
2022/08/02 10:52:01;;;;;;;3.70;1.70;;;;;;;;;;6275307;22;20261;-73
2022/08/02 10:54:37;;;;;;;4.32;2.45;;;;;;;;;;6297572;22;20147;-74
2022/08/02 10:57:02;;;;;;;3.60;1.92;;;;;;;;;;6303790;22;20467;-73
2022/08/02 10:59:34;;;;;;;3.50;1.75;;;;;;;;;;6277770;22;20155;-73
2022/08/02 11:02:03;;;;;;;2.53;1.83;;;;;;;;;;6304494;22;20163;-73
2022/08/02 11:04:31;;;;;;;5.47;2.03;;;;;;;;;;6304350;22;20223;-73
2022/08/02 11:07:10;;;;;;;1.63;1.17;;;;;;;;;;6303572;22;20151;-73
2022/08/02 11:09:35;;;;;;;3.40;1.42;;;;;;;;;;6303883;22;20224;-72
2022/08/02 11:12:04;;;;;;;3.28;2.00;;;;;;;;;;6304381;22;20160;-72
2022/08/02 11:14:29;;;;;;;3.13;2.00;;;;;;;;;;6304325;22;20164;-73
2022/08/02 11:16:54;;;;;;;1.80;1.60;;;;;;;;;;6276843;22;20488;-72
2022/08/02 11:19:20;;;;;;;3.92;2.15;;;;;;;;;;6299925;22;20167;-73
2022/08/02 11:22:02;;;;;;;4.35;1.65;;;;;;;;;;6301018;22;20163;-73
2022/08/02 11:24:34;;;;;;;3.15;1.65;;;;;;;;;;6277855;22;20603;-73
2022/08/02 11:27:00;;;;;;;4.05;1.40;;;;;;;;;;6278912;22;20174;-72
2022/08/02 11:29:36;;;;;;;2.53;1.20;;;;;;;;;;6306302;22;20618;-72
2022/08/02 11:32:01;;;;;;;5.18;1.42;;;;;;;;;;6279018;22;20636;-73
2022/08/02 11:34:27;;;;;;;2.17;1.60;;;;;;;;;;6305202;22;20172;-73
2022/08/02 11:36:52;;;;;;;3.85;1.88;;;;;;;;;;6306091;22;20144;-73
2022/08/02 11:39:22;;;;;;;3.30;1.63;;;;;;;;;;6304581;22;20659;-72
2022/08/02 11:41:48;;;;;;;3.63;1.75;;;;;;;;;;6305200;22;20186;-72
2022/08/02 11:44:13;;;;;;;3.55;1.83;;;;;;;;;;6306177;22;20163;-71
2022/08/02 11:46:39;;;;;;;3.58;1.90;;;;;;;;;;6306475;22;20148;-73
2022/08/02 11:49:14;;;;;;;4.80;2.53;;;;;;;;;;6305420;22;20257;-72
2022/08/02 11:51:49;;;;;;;3.10;2.13;;;;;;;;;;6306144;22;20170;-72
2022/08/02 11:54:21;;;;;;;2.08;1.80;;;;;;;;;;6306316;22;20228;-72
2022/08/02 11:56:46;;;;;;;6.80;1.88;;;;;;;;;;6306762;22;20203;-72
2022/08/02 11:59:11;;;;;;;2.80;1.60;;;;;;;;;;6306228;22;20182;-72
2022/08/02 12:01:37;;;;;;;2.67;1.90;;;;;;;;;;6306351;22;20171;-71
2022/08/02 12:04:03;;;;;;;2.67;1.90;;;;;;;;;;6306496;22;20159;-72
2022/08/02 12:06:29;;;;;;;2.88;1.90;;;;;;;;;;6306442;22;20148;-72
2022/08/02 12:09:13;;;;;;;4.85;2.20;;;;;;;;;;6306220;22;20251;-72
2022/08/02 12:11:38;;;;;;;4.45;2.00;;;;;;;;;;6304306;22;20166;-73
2022/08/02 12:14:04;;;;;;;3.63;2.33;;;;;;;;;;6306493;22;20148;-73
2022/08/02 12:19:28;;;;;;;4.47;2.53;;;;;;;;;;6305637;22;20147;-74
2022/08/02 12:22:12;;;;;;;3.30;2.60;;;;;;;;;;6305684;22;20618;-74
2022/08/02 12:24:38;;;;;;;4.82;2.92;;;;;;;;;;6305632;22;20197;-74
2022/08/02 12:27:03;;;;;;;3.45;2.50;;;;;;;;;;6306124;22;20178;-74
2022/08/02 12:29:39;;;;;;;6.93;2.05;;;;;;;;;;6306046;22;20172;-74
2022/08/02 12:32:04;;;;;;;3.25;2.17;;;;;;;;;;6304759;22;20504;-74
2022/08/02 12:34:31;;;;;;;2.83;1.80;;;;;;;;;;6304861;22;20227;-74
2022/08/02 12:37:00;;;;;;;3.05;1.90;;;;;;;;;;6278195;22;20159;-72
2022/08/02 12:39:40;;;;;;;3.55;1.55;;;;;;;;;;6277823;22;20163;-72
2022/08/02 12:42:06;;;;;;;3.95;2.20;;;;;;;;;;6304934;22;20167;-72
2022/08/02 12:44:32;;;;;;;3.03;2.08;;;;;;;;;;6304753;22;20159;-71
2022/08/02 12:47:00;;;;;;;3.97;1.95;;;;;;;;;;6305112;22;20144;-72
2022/08/02 12:49:26;;;;;;;3.95;1.73;;;;;;;;;;6304923;22;20236;-72
2022/08/02 12:51:51;;;;;;;3.72;1.92;;;;;;;;;;6304924;22;20168;-72
2022/08/02 12:54:19;;;;;;;4.43;1.90;;;;;;;;;;6305057;22;20159;-73
2022/08/02 12:56:44;;;;;;;3.38;2.05;;;;;;;;;;6304519;22;20363;-72
2022/08/02 12:59:09;;;;;;;3.97;1.75;;;;;;;;;;6305181;22;20526;-73
2022/08/02 13:01:35;;;;;;;3.13;1.73;;;;;;;;;;6303692;22;20167;-73
2022/08/02 13:04:01;;;;;;;6.03;1.90;;;;;;;;;;6304583;22;20443;-73
2022/08/02 13:06:26;;;;;;;2.63;1.50;;;;;;;;;;6305197;22;20144;-72
2022/08/02 13:08:54;;;;;;;5.37;4.07;;;;;;;;;;6305278;22;20545;-72
2022/08/02 13:11:20;;;;;;;4.88;1.75;;;;;;;;;;6278003;22;20392;-72
2022/08/02 13:13:45;;;;;;;2.35;1.15;;;;;;;;;;6304750;22;20167;-72
2022/08/02 13:16:11;;;;;;;2.13;1.15;;;;;;;;;;6304978;22;20579;-72
2022/08/02 13:18:36;;;;;;;3.78;1.85;;;;;;;;;;6305252;22;20202;-73
2022/08/02 13:21:05;;;;;;;4.15;1.27;;;;;;;;;;6304931;22;20171;-73
2022/08/02 13:23:31;;;;;;;4.00;1.75;;;;;;;;;;6303480;22;20626;-72
2022/08/02 13:25:56;;;;;;;3.30;1.92;;;;;;;;;;6303131;22;20210;-72
2022/08/02 13:28:22;;;;;;;2.63;1.40;;;;;;;;;;6305595;22;20468;-72
2022/08/02 13:30:47;;;;;;;2.67;1.60;;;;;;;;;;6303627;22;20248;-72
2022/08/02 13:33:12;;;;;;;1.95;1.30;;;;;;;;;;6277445;22;20373;-71
2022/08/02 13:35:38;;;;;;;3.55;1.73;;;;;;;;;;6304034;22;20182;-72
2022/08/02 13:38:05;;;;;;;4.70;1.63;;;;;;;;;;6305406;22;20151;-71
2022/08/02 13:40:30;;;;;;;2.75;1.05;;;;;;;;;;6304579;22;20228;-71
2022/08/02 13:42:56;;;;;;;1.77;1.52;;;;;;;;;;6305068;22;20167;-71
2022/08/02 13:45:21;;;;;;;1.88;1.65;;;;;;;;;;6305599;22;20143;-72
2022/08/02 13:47:48;;;;;;;2.17;1.42;;;;;;;;;;6305123;22;20281;-71
2022/08/02 13:50:13;;;;;;;1.38;1.20;;;;;;;;;;6304639;22;20178;-72
2022/08/02 13:52:38;;;;;;;2.40;1.70;;;;;;;;;;6304637;22;20147;-72
2022/08/02 13:55:04;;;;;;;4.80;1.90;;;;;;;;;;6304137;22;20171;-72
2022/08/02 13:57:29;;;;;;;2.42;1.05;;;;;;;;;;6303772;22;20144;-70
2022/08/02 13:59:54;;;;;;;2.17;1.20;;;;;;;;;;6305288;22;20186;-67
2022/08/02 14:02:20;;;;;;;2.83;1.87;;;;;;;;;;6304247;22;20444;-68
2022/08/02 14:04:45;;;;;;;4.72;1.55;;;;;;;;;;6304785;22;20353;-69
2022/08/02 14:07:10;;;;;;;3.80;1.20;;;;;;;;;;6303875;22;20485;-68
2022/08/02 14:09:35;;;;;;;3.83;1.50;;;;;;;;;;6304553;22;20171;-70
2022/08/02 14:12:04;;;;;;;2.75;1.60;;;;;;;;;;6303829;22;20388;-68
2022/08/02 14:14:30;;;;;;;2.70;1.50;;;;;;;;;;6304911;22;20455;-67
2022/08/02 14:16:55;;;;;;;5.20;1.55;;;;;;;;;;6303543;22;20222;-69
2022/08/02 14:19:20;;;;;;;4.93;1.60;;;;;;;;;;6302895;22;20151;-68
2022/08/02 14:21:49;;;;;;;4.50;1.70;;;;;;;;;;6304149;22;20642;-68
2022/08/02 14:24:15;;;;;;;4.63;1.60;;;;;;;;;;6303980;22;20171;-68
2022/08/02 14:26:40;;;;;;;4.95;1.55;;;;;;;;;;6305578;22;20147;-69
2022/08/02 14:29:05;;;;;;;3.67;1.50;;;;;;;;;;6275424;22;20218;-69
2022/08/02 14:31:30;;;;;;;4.65;1.38;;;;;;;;;;6304266;22;20166;-67
2022/08/02 14:33:56;;;;;;;2.67;1.30;;;;;;;;;;6304645;22;20167;-66
2022/08/02 14:36:21;;;;;;;3.05;1.23;;;;;;;;;;6304969;22;20827;-67
2022/08/02 14:38:46;;;;;;;2.37;1.23;;;;;;;;;;6302978;22;20545;-68
2022/08/02 14:41:11;;;;;;;6.23;1.40;;;;;;;;;;6302895;22;20839;-67
2022/08/02 14:46:20;;;;;;;3.92;1.55;;;;;;;;;;6303002;22;20138;-67
2022/08/02 14:48:45;;;;;;;5.90;1.70;;;;;;;;;;6303532;22;20271;-68